New Orleans, Louisiana
Traffic Map
Current Weather Conditions
New Orleans, Louisiana
Broken Clouds
Broken Clouds
28°
Feels Like: 28°
Wind Chill: 28° Ceiling: 4000
Heat Index: 28° Visibility: 10mi
Dew Point: 16° Wind: 7mph
Humidity: 48% Direction: 190° (S)
Pressure: 29.97in Gusts: 0mph
Raw Report DataKVSH 241715Z AUTO 19006KT 10SM BKN040 28/16 A2997 RMK AO1
Traffic Incident Summary
Active as of:
Severity:
Category:
InformationThere was an issue retrieving the traffic information for this location. Please try a different location or try again shortly.
Advertisements
At Last! Intellicast now available for iPhone and Android